sensor_id;sensor_type;location;lat;lon;timestamp;temperature;humidity
8711;DHT22;4392;47.400;8.062;2023-12-20T00:01:32;6.50;99.90
8711;DHT22;4392;47.400;8.062;2023-12-20T00:03:57;7.50;99.90
8711;DHT22;4392;47.400;8.062;2023-12-20T00:06:23;7.70;99.90
8711;DHT22;4392;47.400;8.062;2023-12-20T00:08:49;7.20;99.90
8711;DHT22;4392;47.400;8.062;2023-12-20T00:11:15;6.80;99.90
8711;DHT22;4392;47.400;8.062;2023-12-20T00:13:40;6.70;99.90
8711;DHT22;4392;47.400;8.062;2023-12-20T00:16:06;6.50;99.90
8711;DHT22;4392;47.400;8.062;2023-12-20T00:18:31;6.40;99.90
8711;DHT22;4392;47.400;8.062;2023-12-20T00:20:57;6.40;99.90
8711;DHT22;4392;47.400;8.062;2023-12-20T00:23:23;6.30;99.90
8711;DHT22;4392;47.400;8.062;2023-12-20T00:25:49;6.30;99.90
8711;DHT22;4392;47.400;8.062;2023-12-20T00:28:15;6.50;99.90
8711;DHT22;4392;47.400;8.062;2023-12-20T00:30:40;6.40;99.90
8711;DHT22;4392;47.400;8.062;2023-12-20T00:33:06;6.30;99.90
8711;DHT22;4392;47.400;8.062;2023-12-20T00:35:31;7.50;99.90
8711;DHT22;4392;47.400;8.062;2023-12-20T00:37:58;8.60;99.90
8711;DHT22;4392;47.400;8.062;2023-12-20T00:40:24;7.70;99.90
8711;DHT22;4392;47.400;8.062;2023-12-20T00:42:50;7.10;99.90
8711;DHT22;4392;47.400;8.062;2023-12-20T00:45:15;6.80;99.90
8711;DHT22;4392;47.400;8.062;2023-12-20T00:47:41;6.70;99.90
8711;DHT22;4392;47.400;8.062;2023-12-20T00:50:07;6.60;99.90
8711;DHT22;4392;47.400;8.062;2023-12-20T00:52:33;6.70;99.90
8711;DHT22;4392;47.400;8.062;2023-12-20T00:54:58;6.70;99.90
8711;DHT22;4392;47.400;8.062;2023-12-20T00:57:24;6.50;99.90
8711;DHT22;4392;47.400;8.062;2023-12-20T00:59:50;6.40;99.90
8711;DHT22;4392;47.400;8.062;2023-12-20T01:02:16;6.30;99.90
8711;DHT22;4392;47.400;8.062;2023-12-20T01:04:41;6.30;99.90
8711;DHT22;4392;47.400;8.062;2023-12-20T01:07:08;6.30;99.90
8711;DHT22;4392;47.400;8.062;2023-12-20T01:09:33;6.20;99.90
8711;DHT22;4392;47.400;8.062;2023-12-20T01:11:59;6.20;99.90
8711;DHT22;4392;47.400;8.062;2023-12-20T01:14:24;6.20;99.90
8711;DHT22;4392;47.400;8.062;2023-12-20T01:16:50;6.20;99.90
8711;DHT22;4392;47.400;8.062;2023-12-20T01:19:16;8.10;99.90
8711;DHT22;4392;47.400;8.062;2023-12-20T01:21:41;8.70;99.90
8711;DHT22;4392;47.400;8.062;2023-12-20T01:24:07;7.80;99.90
8711;DHT22;4392;47.400;8.062;2023-12-20T01:26:33;7.20;99.90
8711;DHT22;4392;47.400;8.062;2023-12-20T01:28:58;7.10;99.90
8711;DHT22;4392;47.400;8.062;2023-12-20T01:31:24;7.40;99.90
8711;DHT22;4392;47.400;8.062;2023-12-20T01:33:49;7.30;99.90
8711;DHT22;4392;47.400;8.062;2023-12-20T01:36:15;7.60;99.90
8711;DHT22;4392;47.400;8.062;2023-12-20T01:38:41;7.50;99.90
8711;DHT22;4392;47.400;8.062;2023-12-20T01:41:06;7.50;99.90
8711;DHT22;4392;47.400;8.062;2023-12-20T01:43:32;7.40;99.90
8711;DHT22;4392;47.400;8.062;2023-12-20T01:45:58;7.60;99.90
8711;DHT22;4392;47.400;8.062;2023-12-20T01:48:25;7.50;99.90
8711;DHT22;4392;47.400;8.062;2023-12-20T01:50:51;7.70;99.90
8711;DHT22;4392;47.400;8.062;2023-12-20T01:53:19;7.40;99.90
8711;DHT22;4392;47.400;8.062;2023-12-20T01:55:46;7.60;99.90
8711;DHT22;4392;47.400;8.062;2023-12-20T01:58:13;8.00;99.90
8711;DHT22;4392;47.400;8.062;2023-12-20T02:00:40;8.40;99.90
8711;DHT22;4392;47.400;8.062;2023-12-20T02:03:06;7.80;99.90
8711;DHT22;4392;47.400;8.062;2023-12-20T02:05:33;7.30;99.90
8711;DHT22;4392;47.400;8.062;2023-12-20T02:08:00;7.10;99.90
8711;DHT22;4392;47.400;8.062;2023-12-20T02:10:26;7.00;99.90
8711;DHT22;4392;47.400;8.062;2023-12-20T02:12:52;6.90;99.90
8711;DHT22;4392;47.400;8.062;2023-12-20T02:15:17;7.80;99.90
8711;DHT22;4392;47.400;8.062;2023-12-20T02:17:44;8.80;99.90
8711;DHT22;4392;47.400;8.062;2023-12-20T02:20:10;8.00;99.90
8711;DHT22;4392;47.400;8.062;2023-12-20T02:22:36;7.50;99.90
8711;DHT22;4392;47.400;8.062;2023-12-20T02:25:02;7.20;99.90
8711;DHT22;4392;47.400;8.062;2023-12-20T02:27:28;7.00;99.90
8711;DHT22;4392;47.400;8.062;2023-12-20T02:29:54;6.90;99.90
8711;DHT22;4392;47.400;8.062;2023-12-20T02:32:21;6.80;99.90
8711;DHT22;4392;47.400;8.062;2023-12-20T02:34:48;6.80;99.90
8711;DHT22;4392;47.400;8.062;2023-12-20T02:37:14;6.70;99.90
8711;DHT22;4392;47.400;8.062;2023-12-20T02:39:39;6.70;99.90
8711;DHT22;4392;47.400;8.062;2023-12-20T02:42:05;6.70;99.90
8711;DHT22;4392;47.400;8.062;2023-12-20T02:44:31;6.60;99.90
8711;DHT22;4392;47.400;8.062;2023-12-20T02:46:56;6.60;99.90
8711;DHT22;4392;47.400;8.062;2023-12-20T02:49:22;6.50;99.90
8711;DHT22;4392;47.400;8.062;2023-12-20T02:51:48;6.50;99.90
8711;DHT22;4392;47.400;8.062;2023-12-20T02:54:13;7.70;99.90
8711;DHT22;4392;47.400;8.062;2023-12-20T02:56:39;8.70;99.90
8711;DHT22;4392;47.400;8.062;2023-12-20T02:59:05;8.60;99.90
8711;DHT22;4392;47.400;8.062;2023-12-20T03:01:31;8.70;99.90
8711;DHT22;4392;47.400;8.062;2023-12-20T03:03:59;8.80;99.90
8711;DHT22;4392;47.400;8.062;2023-12-20T03:06:25;8.80;99.90
8711;DHT22;4392;47.400;8.062;2023-12-20T03:08:51;8.80;99.90
8711;DHT22;4392;47.400;8.062;2023-12-20T03:11:19;8.30;99.90
8711;DHT22;4392;47.400;8.062;2023-12-20T03:13:44;8.20;99.90
8711;DHT22;4392;47.400;8.062;2023-12-20T03:16:11;8.60;99.90
8711;DHT22;4392;47.400;8.062;2023-12-20T03:18:37;8.70;99.90
8711;DHT22;4392;47.400;8.062;2023-12-20T03:21:07;8.90;99.90
8711;DHT22;4392;47.400;8.062;2023-12-20T03:23:33;8.80;99.90
8711;DHT22;4392;47.400;8.062;2023-12-20T03:26:02;9.10;99.90
8711;DHT22;4392;47.400;8.062;2023-12-20T03:28:27;9.50;99.90
8711;DHT22;4392;47.400;8.062;2023-12-20T03:30:53;8.60;99.90
8711;DHT22;4392;47.400;8.062;2023-12-20T03:33:19;8.00;99.90
8711;DHT22;4392;47.400;8.062;2023-12-20T03:35:44;7.50;99.90
8711;DHT22;4392;47.400;8.062;2023-12-20T03:38:10;7.30;99.90
8711;DHT22;4392;47.400;8.062;2023-12-20T03:40:36;7.20;99.90
8711;DHT22;4392;47.400;8.062;2023-12-20T03:43:01;7.10;99.90
8711;DHT22;4392;47.400;8.062;2023-12-20T03:45:27;7.00;99.90
8711;DHT22;4392;47.400;8.062;2023-12-20T03:47:55;7.00;99.90
8711;DHT22;4392;47.400;8.062;2023-12-20T03:50:25;6.90;99.90
8711;DHT22;4392;47.400;8.062;2023-12-20T03:52:51;6.90;99.90
8711;DHT22;4392;47.400;8.062;2023-12-20T03:55:17;6.80;99.90
8711;DHT22;4392;47.400;8.062;2023-12-20T03:57:42;6.80;99.90
8711;DHT22;4392;47.400;8.062;2023-12-20T04:00:11;6.80;99.90
8711;DHT22;4392;47.400;8.062;2023-12-20T04:02:40;6.80;99.90
8711;DHT22;4392;47.400;8.062;2023-12-20T04:05:06;8.40;99.90
8711;DHT22;4392;47.400;8.062;2023-12-20T04:07:32;9.00;99.90
8711;DHT22;4392;47.400;8.062;2023-12-20T04:09:58;9.00;99.90
8711;DHT22;4392;47.400;8.062;2023-12-20T04:12:24;9.70;99.90
8711;DHT22;4392;47.400;8.062;2023-12-20T04:14:50;8.90;99.90
8711;DHT22;4392;47.400;8.062;2023-12-20T04:17:16;8.30;99.90
8711;DHT22;4392;47.400;8.062;2023-12-20T04:19:42;7.70;99.90
8711;DHT22;4392;47.400;8.062;2023-12-20T04:22:08;7.30;99.90
8711;DHT22;4392;47.400;8.062;2023-12-20T04:24:34;7.20;99.90
8711;DHT22;4392;47.400;8.062;2023-12-20T04:26:59;7.10;99.90
8711;DHT22;4392;47.400;8.062;2023-12-20T04:29:25;8.80;99.90
8711;DHT22;4392;47.400;8.062;2023-12-20T04:31:51;10.00;99.90
8711;DHT22;4392;47.400;8.062;2023-12-20T04:34:20;9.10;99.90
8711;DHT22;4392;47.400;8.062;2023-12-20T04:36:45;8.40;99.90
8711;DHT22;4392;47.400;8.062;2023-12-20T04:39:12;7.90;99.90
8711;DHT22;4392;47.400;8.062;2023-12-20T04:41:38;7.60;99.90
8711;DHT22;4392;47.400;8.062;2023-12-20T04:44:03;7.40;99.90
8711;DHT22;4392;47.400;8.062;2023-12-20T04:46:29;7.30;99.90
8711;DHT22;4392;47.400;8.062;2023-12-20T04:48:55;7.20;99.90
8711;DHT22;4392;47.400;8.062;2023-12-20T04:51:21;9.40;99.90
8711;DHT22;4392;47.400;8.062;2023-12-20T04:53:46;10.40;99.90
8711;DHT22;4392;47.400;8.062;2023-12-20T04:56:12;10.70;99.90
8711;DHT22;4392;47.400;8.062;2023-12-20T04:58:37;9.60;99.90
8711;DHT22;4392;47.400;8.062;2023-12-20T05:01:05;10.00;99.90
8711;DHT22;4392;47.400;8.062;2023-12-20T05:03:31;10.20;99.90
8711;DHT22;4392;47.400;8.062;2023-12-20T05:05:57;9.20;99.90
8711;DHT22;4392;47.400;8.062;2023-12-20T05:08:22;8.60;99.90
8711;DHT22;4392;47.400;8.062;2023-12-20T05:10:48;8.10;99.90
8711;DHT22;4392;47.400;8.062;2023-12-20T05:13:14;7.90;99.90
8711;DHT22;4392;47.400;8.062;2023-12-20T05:15:39;7.70;99.90
8711;DHT22;4392;47.400;8.062;2023-12-20T05:18:05;7.60;99.90
8711;DHT22;4392;47.400;8.062;2023-12-20T05:20:30;7.50;99.90
8711;DHT22;4392;47.400;8.062;2023-12-20T05:22:56;7.40;99.90
8711;DHT22;4392;47.400;8.062;2023-12-20T05:25:22;7.90;99.90
8711;DHT22;4392;47.400;8.062;2023-12-20T05:27:47;9.00;99.90
8711;DHT22;4392;47.400;8.062;2023-12-20T05:30:13;8.50;99.90
8711;DHT22;4392;47.400;8.062;2023-12-20T05:32:39;8.00;99.90
8711;DHT22;4392;47.400;8.062;2023-12-20T05:35:05;7.70;99.90
8711;DHT22;4392;47.400;8.062;2023-12-20T05:37:30;9.20;99.90
8711;DHT22;4392;47.400;8.062;2023-12-20T05:39:56;8.90;99.90
8711;DHT22;4392;47.400;8.062;2023-12-20T05:42:21;8.30;99.90
8711;DHT22;4392;47.400;8.062;2023-12-20T05:44:47;7.80;99.90
8711;DHT22;4392;47.400;8.062;2023-12-20T05:47:13;7.60;99.90
8711;DHT22;4392;47.400;8.062;2023-12-20T05:49:38;7.40;99.90
8711;DHT22;4392;47.400;8.062;2023-12-20T05:52:04;7.30;99.90
8711;DHT22;4392;47.400;8.062;2023-12-20T05:54:30;7.20;99.90
8711;DHT22;4392;47.400;8.062;2023-12-20T05:56:56;8.90;99.90
8711;DHT22;4392;47.400;8.062;2023-12-20T05:59:21;8.40;99.90
8711;DHT22;4392;47.400;8.062;2023-12-20T06:01:47;7.90;99.90
8711;DHT22;4392;47.400;8.062;2023-12-20T06:04:12;7.60;99.90
8711;DHT22;4392;47.400;8.062;2023-12-20T06:06:42;7.20;99.90
8711;DHT22;4392;47.400;8.062;2023-12-20T06:09:08;6.90;99.90
8711;DHT22;4392;47.400;8.062;2023-12-20T06:11:34;6.90;99.90
8711;DHT22;4392;47.400;8.062;2023-12-20T06:13:59;6.90;99.90
8711;DHT22;4392;47.400;8.062;2023-12-20T06:16:25;6.90;99.90
8711;DHT22;4392;47.400;8.062;2023-12-20T06:18:51;6.90;99.90
8711;DHT22;4392;47.400;8.062;2023-12-20T06:21:16;6.90;99.90
8711;DHT22;4392;47.400;8.062;2023-12-20T06:23:42;6.80;99.90
8711;DHT22;4392;47.400;8.062;2023-12-20T06:26:07;6.90;99.90
8711;DHT22;4392;47.400;8.062;2023-12-20T06:28:33;6.90;99.90
8711;DHT22;4392;47.400;8.062;2023-12-20T06:30:59;6.90;99.90
8711;DHT22;4392;47.400;8.062;2023-12-20T06:33:26;6.80;99.90
8711;DHT22;4392;47.400;8.062;2023-12-20T06:35:51;6.80;99.90
8711;DHT22;4392;47.400;8.062;2023-12-20T06:38:19;6.70;99.90
8711;DHT22;4392;47.400;8.062;2023-12-20T06:40:44;6.70;99.90
8711;DHT22;4392;47.400;8.062;2023-12-20T06:43:11;6.80;99.90
8711;DHT22;4392;47.400;8.062;2023-12-20T06:45:37;6.80;99.90
8711;DHT22;4392;47.400;8.062;2023-12-20T06:48:03;6.80;99.90
8711;DHT22;4392;47.400;8.062;2023-12-20T06:50:28;6.80;99.90
8711;DHT22;4392;47.400;8.062;2023-12-20T06:52:54;6.80;99.90
8711;DHT22;4392;47.400;8.062;2023-12-20T06:55:20;6.80;99.90
8711;DHT22;4392;47.400;8.062;2023-12-20T06:57:45;6.80;99.90
8711;DHT22;4392;47.400;8.062;2023-12-20T07:00:11;6.80;99.90
8711;DHT22;4392;47.400;8.062;2023-12-20T07:02:37;6.80;99.90
8711;DHT22;4392;47.400;8.062;2023-12-20T07:05:03;6.90;99.90
8711;DHT22;4392;47.400;8.062;2023-12-20T07:07:29;6.80;99.90
8711;DHT22;4392;47.400;8.062;2023-12-20T07:09:55;6.90;99.90
8711;DHT22;4392;47.400;8.062;2023-12-20T07:12:21;6.80;99.90
8711;DHT22;4392;47.400;8.062;2023-12-20T07:14:47;6.90;99.90
8711;DHT22;4392;47.400;8.062;2023-12-20T07:17:12;6.90;99.90
8711;DHT22;4392;47.400;8.062;2023-12-20T07:19:40;6.90;99.90
8711;DHT22;4392;47.400;8.062;2023-12-20T07:22:06;7.00;99.90
8711;DHT22;4392;47.400;8.062;2023-12-20T07:24:32;6.60;99.90
8711;DHT22;4392;47.400;8.062;2023-12-20T07:27:01;6.50;99.90
8711;DHT22;4392;47.400;8.062;2023-12-20T07:29:27;6.80;99.90
8711;DHT22;4392;47.400;8.062;2023-12-20T07:31:53;6.90;99.90
8711;DHT22;4392;47.400;8.062;2023-12-20T07:34:20;7.00;99.90
8711;DHT22;4392;47.400;8.062;2023-12-20T07:36:46;6.80;99.90
8711;DHT22;4392;47.400;8.062;2023-12-20T07:39:12;6.90;99.90
8711;DHT22;4392;47.400;8.062;2023-12-20T07:41:38;6.90;99.90
8711;DHT22;4392;47.400;8.062;2023-12-20T07:44:04;7.10;99.90
8711;DHT22;4392;47.400;8.062;2023-12-20T07:46:30;7.00;99.90
8711;DHT22;4392;47.400;8.062;2023-12-20T07:48:55;7.00;99.90
8711;DHT22;4392;47.400;8.062;2023-12-20T07:51:21;6.90;99.90
8711;DHT22;4392;47.400;8.062;2023-12-20T07:53:47;6.90;99.90
8711;DHT22;4392;47.400;8.062;2023-12-20T07:56:16;7.10;99.90
8711;DHT22;4392;47.400;8.062;2023-12-20T07:58:43;7.10;99.90
8711;DHT22;4392;47.400;8.062;2023-12-20T08:01:09;7.20;99.90
8711;DHT22;4392;47.400;8.062;2023-12-20T08:03:35;7.20;99.90
8711;DHT22;4392;47.400;8.062;2023-12-20T08:06:00;7.20;99.90
8711;DHT22;4392;47.400;8.062;2023-12-20T08:08:26;7.20;99.90
8711;DHT22;4392;47.400;8.062;2023-12-20T08:10:52;7.20;99.90
8711;DHT22;4392;47.400;8.062;2023-12-20T08:13:17;7.10;99.90
8711;DHT22;4392;47.400;8.062;2023-12-20T08:15:43;7.10;99.90
8711;DHT22;4392;47.400;8.062;2023-12-20T08:18:09;7.00;99.90
8711;DHT22;4392;47.400;8.062;2023-12-20T08:20:34;7.00;99.90
8711;DHT22;4392;47.400;8.062;2023-12-20T08:23:00;6.90;99.90
8711;DHT22;4392;47.400;8.062;2023-12-20T08:25:26;6.90;99.90
8711;DHT22;4392;47.400;8.062;2023-12-20T08:27:55;7.00;99.90
8711;DHT22;4392;47.400;8.062;2023-12-20T08:30:21;7.00;99.90
8711;DHT22;4392;47.400;8.062;2023-12-20T08:32:50;7.00;99.90
8711;DHT22;4392;47.400;8.062;2023-12-20T08:35:15;7.10;99.90
8711;DHT22;4392;47.400;8.062;2023-12-20T08:37:41;7.00;99.90
8711;DHT22;4392;47.400;8.062;2023-12-20T08:40:07;7.00;99.90
8711;DHT22;4392;47.400;8.062;2023-12-20T08:42:32;7.00;99.90
8711;DHT22;4392;47.400;8.062;2023-12-20T08:44:58;7.00;99.90
8711;DHT22;4392;47.400;8.062;2023-12-20T08:47:24;7.00;99.90
8711;DHT22;4392;47.400;8.062;2023-12-20T08:49:50;7.00;99.90
8711;DHT22;4392;47.400;8.062;2023-12-20T08:52:16;7.00;99.90
8711;DHT22;4392;47.400;8.062;2023-12-20T08:54:41;7.10;99.90
8711;DHT22;4392;47.400;8.062;2023-12-20T08:57:07;7.00;99.90
8711;DHT22;4392;47.400;8.062;2023-12-20T08:59:33;7.10;99.90
8711;DHT22;4392;47.400;8.062;2023-12-20T09:01:59;7.10;99.90
8711;DHT22;4392;47.400;8.062;2023-12-20T09:04:25;7.10;99.90
8711;DHT22;4392;47.400;8.062;2023-12-20T09:06:50;7.10;99.90
8711;DHT22;4392;47.400;8.062;2023-12-20T09:09:16;7.10;99.90
8711;DHT22;4392;47.400;8.062;2023-12-20T09:11:42;7.00;99.90
8711;DHT22;4392;47.400;8.062;2023-12-20T09:14:08;6.90;99.90
8711;DHT22;4392;47.400;8.062;2023-12-20T09:16:34;7.00;99.90
8711;DHT22;4392;47.400;8.062;2023-12-20T09:19:00;7.20;99.90
8711;DHT22;4392;47.400;8.062;2023-12-20T09:21:26;7.30;99.90
8711;DHT22;4392;47.400;8.062;2023-12-20T09:23:51;7.50;99.90
8711;DHT22;4392;47.400;8.062;2023-12-20T09:26:17;7.40;99.90
8711;DHT22;4392;47.400;8.062;2023-12-20T09:28:45;7.30;99.90
8711;DHT22;4392;47.400;8.062;2023-12-20T09:31:10;7.20;99.90
8711;DHT22;4392;47.400;8.062;2023-12-20T09:33:38;7.20;99.90
8711;DHT22;4392;47.400;8.062;2023-12-20T09:36:04;7.10;99.90
8711;DHT22;4392;47.400;8.062;2023-12-20T09:38:30;7.10;99.90
8711;DHT22;4392;47.400;8.062;2023-12-20T09:40:56;7.10;99.90
8711;DHT22;4392;47.400;8.062;2023-12-20T09:43:24;7.10;99.90
8711;DHT22;4392;47.400;8.062;2023-12-20T09:45:53;7.10;99.90
8711;DHT22;4392;47.400;8.062;2023-12-20T09:48:19;7.10;99.90
8711;DHT22;4392;47.400;8.062;2023-12-20T09:50:45;7.00;99.90
8711;DHT22;4392;47.400;8.062;2023-12-20T09:53:15;6.80;99.90
8711;DHT22;4392;47.400;8.062;2023-12-20T09:55:41;6.90;99.90
8711;DHT22;4392;47.400;8.062;2023-12-20T09:58:07;7.00;99.90
8711;DHT22;4392;47.400;8.062;2023-12-20T10:00:34;7.30;99.90
8711;DHT22;4392;47.400;8.062;2023-12-20T10:03:00;7.40;99.90
8711;DHT22;4392;47.400;8.062;2023-12-20T10:05:28;7.50;99.90
8711;DHT22;4392;47.400;8.062;2023-12-20T10:07:54;7.50;99.90
8711;DHT22;4392;47.400;8.062;2023-12-20T10:10:20;7.60;99.90
8711;DHT22;4392;47.400;8.062;2023-12-20T10:15:27;7.70;99.90
8711;DHT22;4392;47.400;8.062;2023-12-20T10:17:53;7.80;99.90
8711;DHT22;4392;47.400;8.062;2023-12-20T10:20:20;7.70;99.90
8711;DHT22;4392;47.400;8.062;2023-12-20T10:22:46;7.50;99.90
8711;DHT22;4392;47.400;8.062;2023-12-20T10:25:14;7.40;99.90
8711;DHT22;4392;47.400;8.062;2023-12-20T10:27:40;7.40;99.90
8711;DHT22;4392;47.400;8.062;2023-12-20T10:30:06;7.60;99.90
8711;DHT22;4392;47.400;8.062;2023-12-20T10:32:32;7.60;99.90
8711;DHT22;4392;47.400;8.062;2023-12-20T10:34:58;7.70;99.90
8711;DHT22;4392;47.400;8.062;2023-12-20T10:37:25;7.70;99.90
8711;DHT22;4392;47.400;8.062;2023-12-20T10:39:52;7.70;99.90
8711;DHT22;4392;47.400;8.062;2023-12-20T10:42:21;7.70;99.90
8711;DHT22;4392;47.400;8.062;2023-12-20T10:44:49;7.70;99.90
8711;DHT22;4392;47.400;8.062;2023-12-20T10:47:15;7.70;99.90
8711;DHT22;4392;47.400;8.062;2023-12-20T10:49:46;7.70;99.90
8711;DHT22;4392;47.400;8.062;2023-12-20T10:52:12;7.60;99.90
8711;DHT22;4392;47.400;8.062;2023-12-20T10:54:41;7.70;99.90
8711;DHT22;4392;47.400;8.062;2023-12-20T10:57:07;7.80;99.90
8711;DHT22;4392;47.400;8.062;2023-12-20T10:59:36;7.70;99.90
8711;DHT22;4392;47.400;8.062;2023-12-20T11:02:03;7.60;99.90
8711;DHT22;4392;47.400;8.062;2023-12-20T11:04:41;7.50;99.90
8711;DHT22;4392;47.400;8.062;2023-12-20T11:07:52;7.40;99.90
8711;DHT22;4392;47.400;8.062;2023-12-20T11:10:36;7.20;99.90
8711;DHT22;4392;47.400;8.062;2023-12-20T11:13:17;7.40;99.90
8711;DHT22;4392;47.400;8.062;2023-12-20T11:15:45;7.30;99.90
8711;DHT22;4392;47.400;8.062;2023-12-20T11:18:11;7.20;99.90
8711;DHT22;4392;47.400;8.062;2023-12-20T11:20:39;7.20;99.90
8711;DHT22;4392;47.400;8.062;2023-12-20T11:23:05;7.40;99.90
8711;DHT22;4392;47.400;8.062;2023-12-20T11:25:49;7.20;99.90
8711;DHT22;4392;47.400;8.062;2023-12-20T11:28:21;7.20;99.90
8711;DHT22;4392;47.400;8.062;2023-12-20T11:31:01;7.30;99.90
8711;DHT22;4392;47.400;8.062;2023-12-20T11:33:35;7.20;99.90
8711;DHT22;4392;47.400;8.062;2023-12-20T11:36:01;7.20;99.90
8711;DHT22;4392;47.400;8.062;2023-12-20T11:38:36;7.20;99.90
8711;DHT22;4392;47.400;8.062;2023-12-20T11:41:05;7.20;99.90
8711;DHT22;4392;47.400;8.062;2023-12-20T11:43:40;7.20;99.90
8711;DHT22;4392;47.400;8.062;2023-12-20T11:46:07;7.30;99.90
8711;DHT22;4392;47.400;8.062;2023-12-20T11:48:36;7.30;99.90
8711;DHT22;4392;47.400;8.062;2023-12-20T11:51:02;7.10;99.90
8711;DHT22;4392;47.400;8.062;2023-12-20T11:53:29;7.20;99.90
8711;DHT22;4392;47.400;8.062;2023-12-20T11:55:56;7.40;99.90
8711;DHT22;4392;47.400;8.062;2023-12-20T11:58:22;7.40;99.90
8711;DHT22;4392;47.400;8.062;2023-12-20T12:00:50;7.40;99.90
8711;DHT22;4392;47.400;8.062;2023-12-20T12:03:16;7.50;99.90
8711;DHT22;4392;47.400;8.062;2023-12-20T12:05:41;7.60;99.90
8711;DHT22;4392;47.400;8.062;2023-12-20T12:08:07;7.50;99.90
8711;DHT22;4392;47.400;8.062;2023-12-20T12:10:35;7.50;99.90
8711;DHT22;4392;47.400;8.062;2023-12-20T12:13:00;9.20;99.90
8711;DHT22;4392;47.400;8.062;2023-12-20T12:15:26;9.70;99.90
8711;DHT22;4392;47.400;8.062;2023-12-20T12:17:55;9.30;99.90
8711;DHT22;4392;47.400;8.062;2023-12-20T12:20:24;9.10;99.90
8711;DHT22;4392;47.400;8.062;2023-12-20T12:23:04;9.00;99.90
8711;DHT22;4392;47.400;8.062;2023-12-20T12:25:31;9.30;99.90
8711;DHT22;4392;47.400;8.062;2023-12-20T12:27:57;10.20;99.90
8711;DHT22;4392;47.400;8.062;2023-12-20T12:30:23;9.00;99.90
8711;DHT22;4392;47.400;8.062;2023-12-20T12:32:53;9.10;99.90
8711;DHT22;4392;47.400;8.062;2023-12-20T12:35:19;9.60;99.90
8711;DHT22;4392;47.400;8.062;2023-12-20T12:37:45;9.10;98.50
8711;DHT22;4392;47.400;8.062;2023-12-20T12:40:16;8.40;99.20
8711;DHT22;4392;47.400;8.062;2023-12-20T12:42:43;7.70;99.90
8711;DHT22;4392;47.400;8.062;2023-12-20T12:45:09;7.60;99.90
8711;DHT22;4392;47.400;8.062;2023-12-20T12:47:37;7.40;99.90
8711;DHT22;4392;47.400;8.062;2023-12-20T12:50:03;7.60;99.90
8711;DHT22;4392;47.400;8.062;2023-12-20T12:52:30;7.40;99.90
8711;DHT22;4392;47.400;8.062;2023-12-20T12:54:57;7.20;99.90
8711;DHT22;4392;47.400;8.062;2023-12-20T12:57:23;7.10;99.90
8711;DHT22;4392;47.400;8.062;2023-12-20T12:59:49;8.90;99.90
8711;DHT22;4392;47.400;8.062;2023-12-20T13:02:15;8.40;98.40
8711;DHT22;4392;47.400;8.062;2023-12-20T13:04:41;8.60;99.90
8711;DHT22;4392;47.400;8.062;2023-12-20T13:07:08;9.20;99.90
8711;DHT22;4392;47.400;8.062;2023-12-20T13:09:38;8.80;96.90
8711;DHT22;4392;47.400;8.062;2023-12-20T13:12:04;8.60;96.50
8711;DHT22;4392;47.400;8.062;2023-12-20T13:14:33;8.30;96.40
8711;DHT22;4392;47.400;8.062;2023-12-20T13:17:00;8.30;96.10
8711;DHT22;4392;47.400;8.062;2023-12-20T13:19:25;8.30;96.70
8711;DHT22;4392;47.400;8.062;2023-12-20T13:21:51;9.90;99.90
8711;DHT22;4392;47.400;8.062;2023-12-20T13:24:16;9.50;94.70
8711;DHT22;4392;47.400;8.062;2023-12-20T13:26:42;9.00;94.00
8711;DHT22;4392;47.400;8.062;2023-12-20T13:29:08;8.60;94.10
8711;DHT22;4392;47.400;8.062;2023-12-20T13:31:33;8.50;94.70
8711;DHT22;4392;47.400;8.062;2023-12-20T13:34:01;8.40;94.30
8711;DHT22;4392;47.400;8.062;2023-12-20T13:36:27;8.40;94.30
8711;DHT22;4392;47.400;8.062;2023-12-20T13:38:53;8.40;94.10
8711;DHT22;4392;47.400;8.062;2023-12-20T13:41:19;8.40;93.50
8711;DHT22;4392;47.400;8.062;2023-12-20T13:43:45;8.20;93.40
8711;DHT22;4392;47.400;8.062;2023-12-20T13:46:11;8.20;94.00
8711;DHT22;4392;47.400;8.062;2023-12-20T13:48:36;8.90;99.90
8711;DHT22;4392;47.400;8.062;2023-12-20T13:51:04;9.80;96.70
8711;DHT22;4392;47.400;8.062;2023-12-20T13:53:31;10.70;98.40
8711;DHT22;4392;47.400;8.062;2023-12-20T13:55:57;11.00;96.30
8711;DHT22;4392;47.400;8.062;2023-12-20T13:58:23;11.50;95.30
8711;DHT22;4392;47.400;8.062;2023-12-20T14:00:48;11.60;92.50
8711;DHT22;4392;47.400;8.062;2023-12-20T14:03:14;11.10;90.20
8711;DHT22;4392;47.400;8.062;2023-12-20T14:05:40;10.40;86.90
8711;DHT22;4392;47.400;8.062;2023-12-20T14:08:06;9.40;89.10
8711;DHT22;4392;47.400;8.062;2023-12-20T14:10:32;8.70;90.80
8711;DHT22;4392;47.400;8.062;2023-12-20T14:12:58;8.50;91.50
8711;DHT22;4392;47.400;8.062;2023-12-20T14:15:24;8.10;92.40
8711;DHT22;4392;47.400;8.062;2023-12-20T14:17:51;7.70;93.40
8711;DHT22;4392;47.400;8.062;2023-12-20T14:20:17;7.70;94.20
8711;DHT22;4392;47.400;8.062;2023-12-20T14:22:43;8.40;96.90
8711;DHT22;4392;47.400;8.062;2023-12-20T14:25:15;9.70;96.40
8711;DHT22;4392;47.400;8.062;2023-12-20T14:27:42;10.80;92.10
8711;DHT22;4392;47.400;8.062;2023-12-20T14:30:10;10.70;93.50
8711;DHT22;4392;47.400;8.062;2023-12-20T14:32:37;9.90;88.50
8711;DHT22;4392;47.400;8.062;2023-12-20T14:35:08;9.50;87.50
8711;DHT22;4392;47.400;8.062;2023-12-20T14:37:37;9.60;93.30
8711;DHT22;4392;47.400;8.062;2023-12-20T14:40:06;10.50;99.80
8711;DHT22;4392;47.400;8.062;2023-12-20T14:42:34;10.70;90.60
8711;DHT22;4392;47.400;8.062;2023-12-20T14:45:00;9.90;85.70
8711;DHT22;4392;47.400;8.062;2023-12-20T14:47:26;9.50;84.50
8711;DHT22;4392;47.400;8.062;2023-12-20T14:49:51;9.20;87.50
8711;DHT22;4392;47.400;8.062;2023-12-20T14:52:20;8.80;85.60
8711;DHT22;4392;47.400;8.062;2023-12-20T14:54:46;9.40;96.20
8711;DHT22;4392;47.400;8.062;2023-12-20T14:57:11;10.30;90.70
8711;DHT22;4392;47.400;8.062;2023-12-20T14:59:37;10.50;91.60
8711;DHT22;4392;47.400;8.062;2023-12-20T15:02:05;11.00;89.10
8711;DHT22;4392;47.400;8.062;2023-12-20T15:04:34;10.60;81.10
8711;DHT22;4392;47.400;8.062;2023-12-20T15:06:59;10.20;89.80
8711;DHT22;4392;47.400;8.062;2023-12-20T15:09:26;10.60;83.30
8711;DHT22;4392;47.400;8.062;2023-12-20T15:11:53;10.30;82.30
8711;DHT22;4392;47.400;8.062;2023-12-20T15:14:18;10.10;90.00
8711;DHT22;4392;47.400;8.062;2023-12-20T15:16:47;10.40;87.20
8711;DHT22;4392;47.400;8.062;2023-12-20T15:19:13;10.30;86.20
8711;DHT22;4392;47.400;8.062;2023-12-20T15:21:38;9.90;85.90
8711;DHT22;4392;47.400;8.062;2023-12-20T15:24:14;9.80;86.20
8711;DHT22;4392;47.400;8.062;2023-12-20T15:26:42;9.90;90.10
8711;DHT22;4392;47.400;8.062;2023-12-20T15:29:08;9.70;83.50
8711;DHT22;4392;47.400;8.062;2023-12-20T15:31:44;9.10;84.20
8711;DHT22;4392;47.400;8.062;2023-12-20T15:34:10;10.00;91.50
8711;DHT22;4392;47.400;8.062;2023-12-20T15:36:36;10.80;89.20
8711;DHT22;4392;47.400;8.062;2023-12-20T15:39:03;10.30;79.50
8711;DHT22;4392;47.400;8.062;2023-12-20T15:41:29;9.70;81.80
8711;DHT22;4392;47.400;8.062;2023-12-20T15:43:55;9.20;83.10
8711;DHT22;4392;47.400;8.062;2023-12-20T15:46:21;9.00;84.00
8711;DHT22;4392;47.400;8.062;2023-12-20T15:48:47;8.90;85.00
8711;DHT22;4392;47.400;8.062;2023-12-20T15:51:14;8.70;84.80
8711;DHT22;4392;47.400;8.062;2023-12-20T15:53:40;8.50;84.60
8711;DHT22;4392;47.400;8.062;2023-12-20T15:56:06;8.40;84.80
8711;DHT22;4392;47.400;8.062;2023-12-20T15:58:32;8.40;84.50
8711;DHT22;4392;47.400;8.062;2023-12-20T16:00:58;8.30;84.70
8711;DHT22;4392;47.400;8.062;2023-12-20T16:03:25;8.20;84.80
8711;DHT22;4392;47.400;8.062;2023-12-20T16:05:51;8.10;85.00
8711;DHT22;4392;47.400;8.062;2023-12-20T16:08:17;7.90;84.20
8711;DHT22;4392;47.400;8.062;2023-12-20T16:10:42;7.40;86.10
8711;DHT22;4392;47.400;8.062;2023-12-20T16:13:08;7.60;87.10
8711;DHT22;4392;47.400;8.062;2023-12-20T16:15:34;7.70;86.70